Time;durP1;ratioP1;P1;durP2;ratioP2;P2;SDS_P1;SDS_P2;PMS_P1;PMS_P2;Temp;Humidity;BMP_temperature;BMP_pressure;BME280_temperature;BME280_humidity;BME280_pressure;Samples;Min_cycle;Max_cycle;Signal;HPM_P1;HPM_P2
2021/07/03 00:00:17;;;;;;;;;;;;;;;22.00;62.84;99226.81;3510928;28;20387;-73
2021/07/03 00:01:57;;;;;;;;;;;;;;;22.03;62.88;99220.00;3511159;28;19977;-73
2021/07/03 00:03:38;;;;;;;;;;;;;;;;;;3522834;28;19931;-74
2021/07/03 00:05:18;;;;;;;;;;;;;;;22.08;62.87;99228.13;3520553;28;19927;-74
2021/07/03 00:06:59;;;;;;;;;;;;;;;22.12;62.72;99215.63;3520915;28;20005;-73
2021/07/03 00:08:40;;;;;;;;;;;;;;;22.17;62.74;99225.59;3518924;28;20342;-74
2021/07/03 00:10:21;;;;;;;;;;;;;;;22.20;62.59;99215.03;3509040;28;19931;-75
2021/07/03 00:12:02;;;;;;;;;;;;;;;22.24;62.55;99215.28;3503121;28;19932;-74
2021/07/03 00:13:43;;;;;;;;;;;;;;;22.27;62.37;99220.13;3503928;28;20418;-74
2021/07/03 00:15:23;;;;;;;;;;;;;;;22.31;62.40;99214.97;3494678;28;19924;-73
2021/07/03 00:17:04;;;;;;;;;;;;;;;22.32;62.42;99219.28;3494473;28;19965;-74
2021/07/03 00:18:45;;;;;;;;;;;;;;;22.32;62.42;99216.56;3506338;28;19916;-72
2021/07/03 00:20:26;;;;;;;;;;;;;;;22.31;62.17;99217.69;3508569;28;19924;-72
2021/07/03 00:22:06;;;;;;;;;;;;;;;22.31;62.23;99214.97;3508595;28;20006;-71
2021/07/03 00:23:47;;;;;;;;;;;;;;;22.29;62.30;99217.16;3507279;28;20310;-73
2021/07/03 00:25:27;;;;;;;;;;;;;;;22.26;62.14;99223.97;3507829;28;20306;-72
2021/07/03 00:27:08;;;;;;;;;;;;;;;22.23;62.29;99219.09;3508182;28;19928;-71
2021/07/03 00:28:48;;;;;;;;;;;;;;;22.20;62.04;99219.63;3508213;28;19924;-72
2021/07/03 00:30:29;;;;;;;;;;;;;;;22.18;62.21;99219.91;3503678;28;20461;-71
2021/07/03 00:32:10;;;;;;;;;;;;;;;22.18;62.28;99219.91;3508276;28;19925;-70
2021/07/03 00:33:50;;;;;;;;;;;;;;;22.21;62.32;99219.38;3508380;28;19974;-70
2021/07/03 00:35:31;;;;;;;;;;;;;;;22.21;62.15;99221.28;3508534;28;19931;-72
2021/07/03 00:37:12;;;;;;;;;;;;;;;22.23;62.03;99220.97;3508683;28;20477;-72
2021/07/03 00:38:52;;;;;;;;;;;;;;;22.27;62.11;99213.91;3506986;28;20409;-71
2021/07/03 00:40:33;;;;;;;;;;;;;;;22.28;62.13;99216.34;3508055;28;19939;-71
2021/07/03 00:42:13;;;;;;;;;;;;;;;22.30;62.09;99216.84;3507510;28;19928;-71
2021/07/03 00:43:54;;;;;;;;;;;;;;;22.32;61.86;99216.56;3508029;28;19928;-71
2021/07/03 00:45:35;;;;;;;;;;;;;;;22.31;61.71;99214.97;3507201;28;20395;-71
2021/07/03 00:47:15;;;;;;;;;;;;;;;22.31;61.82;99218.50;3494816;28;20014;-72
2021/07/03 00:48:58;;;;;;;;;;;;;;;22.33;61.87;99221.75;3493008;28;19929;-72
2021/07/03 00:50:39;;;;;;;;;;;;;;;22.35;61.71;99229.59;3504556;28;19924;-71
2021/07/03 00:52:19;;;;;;;;;;;;;;;22.31;61.63;99223.13;3504153;28;19928;-71
2021/07/03 00:54:01;;;;;;;;;;;;;;;22.24;61.81;99237.00;3504501;28;20313;-72
2021/07/03 00:55:44;;;;;;;;;;;;;;;22.17;61.81;99231.03;3490605;28;19931;-71
2021/07/03 00:57:24;;;;;;;;;;;;;;;22.11;61.85;99226.75;3501807;28;19924;-70
2021/07/03 00:59:05;;;;;;;;;;;;;;;22.04;61.79;99232.47;3492913;28;19974;-71
2021/07/03 01:00:46;;;;;;;;;;;;;;;22.01;61.86;99230.34;3513886;28;19923;-72
2021/07/03 01:02:27;;;;;;;;;;;;;;;21.95;62.12;99229.56;3504278;28;19924;-71
2021/07/03 01:04:07;;;;;;;;;;;;;;;21.92;62.14;99234.75;3502796;28;19924;-72
2021/07/03 01:05:49;;;;;;;;;;;;;;;21.89;62.25;99236.13;3497871;28;19932;-71
2021/07/03 01:07:31;;;;;;;;;;;;;;;21.84;62.09;99232.59;3495192;28;19924;-71
2021/07/03 01:09:13;;;;;;;;;;;;;;;21.78;62.28;99229.91;3498204;28;19931;-71
2021/07/03 01:10:54;;;;;;;;;;;;;;;21.75;62.16;99226.97;3512211;28;20295;-71
2021/07/03 01:12:37;;;;;;;;;;;;;;;21.74;62.30;99228.88;3511363;28;19924;-72
2021/07/03 01:14:18;;;;;;;;;;;;;;;21.75;62.19;99229.69;3511622;28;19930;-71
2021/07/03 01:15:59;;;;;;;;;;;;;;;21.76;62.14;99225.84;3508935;28;19927;-71
2021/07/03 01:17:43;;;;;;;;;;;;;;;21.76;62.50;99228.56;3512499;28;19924;-71
2021/07/03 01:19:24;;;;;;;;;;;;;;;21.76;62.41;99232.13;3510825;28;20352;-72
2021/07/03 01:21:04;;;;;;;;;;;;;;;21.77;62.17;99238.34;3509222;28;19924;-71
2021/07/03 01:22:46;;;;;;;;;;;;;;;21.76;62.52;99226.69;3508868;28;19924;-71
2021/07/03 01:24:26;;;;;;;;;;;;;;;21.73;62.27;99229.94;3512211;28;19920;-70
2021/07/03 01:26:07;;;;;;;;;;;;;;;21.70;62.35;99227.00;3512412;28;19931;-71
2021/07/03 01:27:56;;;;;;;;;;;;;;;21.67;62.62;99222.94;3512466;28;19920;-72
2021/07/03 01:29:38;;;;;;;;;;;;;;;21.67;62.37;99228.34;3507358;28;19925;-71
2021/07/03 01:31:19;;;;;;;;;;;;;;;21.64;62.68;99233.53;3494793;28;19989;-71
2021/07/03 01:33:00;;;;;;;;;;;;;;;21.61;62.48;99229.47;3494696;28;20411;-71
2021/07/03 01:34:41;;;;;;;;;;;;;;;21.60;62.73;99227.84;3494626;28;20030;-71
2021/07/03 01:36:28;;;;;;;;;;;;;;;21.58;62.70;99221.88;3495670;28;19928;-71
2021/07/03 01:38:09;;;;;;;;;;;;;;;21.58;62.50;99227.31;3494765;28;19970;-70
2021/07/03 01:39:50;;;;;;;;;;;;;;;21.57;62.52;99231.13;3502079;28;19967;-71
2021/07/03 01:41:31;;;;;;;;;;;;;;;21.56;62.70;99224.09;3512188;28;19931;-72
2021/07/03 01:43:16;;;;;;;;;;;;;;;21.57;62.90;99222.97;3497344;28;19928;-71
2021/07/03 01:44:57;;;;;;;;;;;;;;;21.53;62.86;99222.75;3507006;28;19928;-70
2021/07/03 01:46:40;;;;;;;;;;;;;;;21.58;62.59;99230.00;3512101;28;19931;-70
2021/07/03 01:48:27;;;;;;;;;;;;;;;21.59;62.64;99230.84;3511061;28;20010;-71
2021/07/03 01:50:08;;;;;;;;;;;;;;;21.58;62.62;99224.59;3501581;28;19971;-72
2021/07/03 01:51:49;;;;;;;;;;;;;;;21.56;62.54;99227.59;3494363;28;19932;-72
2021/07/03 01:53:30;;;;;;;;;;;;;;;21.56;62.69;99229.50;3494296;28;19924;-72
2021/07/03 01:55:14;;;;;;;;;;;;;;;21.54;62.58;99234.41;3494858;28;19924;-71
2021/07/03 01:56:59;;;;;;;;;;;;;;;21.54;62.53;99231.69;3494370;28;19925;-72
2021/07/03 01:58:54;;;;;;;;;;;;;;;21.54;62.76;99237.09;3496533;28;20327;-71
2021/07/03 02:00:44;;;;;;;;;;;;;;;21.53;63.01;99235.50;3504634;28;19932;-71
2021/07/03 02:02:32;;;;;;;;;;;;;;;21.51;63.03;99234.94;3510906;28;20448;-72
2021/07/03 02:04:13;;;;;;;;;;;;;;;21.48;62.82;99230.09;3508098;28;19924;-71
2021/07/03 02:05:59;;;;;;;;;;;;;;;21.46;62.92;99237.69;3511771;28;19924;-71
2021/07/03 02:07:39;;;;;;;;;;;;;;;21.45;63.10;99241.47;3511990;28;19934;-71
2021/07/03 02:09:21;;;;;;;;;;;;;;;21.46;62.79;99243.09;3484669;28;20426;-70
2021/07/03 02:11:04;;;;;;;;;;;;;;;21.50;62.99;99244.16;3490990;28;19924;-71
2021/07/03 02:12:46;;;;;;;;;;;;;;;21.52;63.11;99237.38;3480735;28;19924;-71
2021/07/03 02:14:32;;;;;;;;;;;;;;;21.55;62.78;99236.00;3492936;28;19931;-71
2021/07/03 02:16:39;;;;;;;;;;;;;;;21.59;62.81;99236.28;3496030;28;19931;-71
2021/07/03 02:18:22;;;;;;;;;;;;;;;21.60;62.97;99238.69;3497180;28;19931;-71
2021/07/03 02:20:03;;;;;;;;;;;;;;;21.59;62.82;99231.66;3507734;28;19924;-71
2021/07/03 02:21:59;;;;;;;;;;;;;;;21.57;63.06;99236.53;3510215;28;19931;-71
2021/07/03 02:23:49;;;;;;;;;;;;;;;21.55;62.81;99234.09;3508854;28;19978;-70
2021/07/03 02:25:29;;;;;;;;;;;;;;;21.54;62.78;99231.69;3508185;28;19971;-72
2021/07/03 02:27:16;;;;;;;;;;;;;;;21.55;63.11;99222.44;3511885;28;19924;-71
2021/07/03 02:28:59;;;;;;;;;;;;;;;21.56;63.00;99226.78;3501698;28;20023;-72
2021/07/03 02:30:44;;;;;;;;;;;;;;;21.56;62.95;99226.78;3525734;28;19923;-71
2021/07/03 02:32:27;;;;;;;;;;;;;;;21.56;62.92;99224.09;3526246;28;19928;-72
2021/07/03 02:34:08;;;;;;;;;;;;;;;21.56;63.07;99224.09;3526409;28;19928;-71
2021/07/03 02:35:48;;;;;;;;;;;;;;;21.55;62.96;99236.00;3526547;28;19924;-71
2021/07/03 02:37:31;;;;;;;;;;;;;;;21.54;62.87;99228.97;3510688;28;20430;-71
2021/07/03 02:39:12;;;;;;;;;;;;;;;21.56;63.03;99233.03;3498656;28;19931;-71
2021/07/03 02:40:58;;;;;;;;;;;;;;;21.59;63.04;99242.50;3496407;28;19924;-71
2021/07/03 02:42:41;;;;;;;;;;;;;;;21.62;62.85;99239.22;3496633;28;19924;-72
2021/07/03 02:44:21;;;;;;;;;;;;;;;21.67;63.03;99238.41;3496385;28;19924;-71
2021/07/03 02:46:02;;;;;;;;;;;;;;;21.71;62.83;99234.84;3497335;28;19951;-70
2021/07/03 02:47:43;;;;;;;;;;;;;;;21.76;62.82;99229.41;3497374;28;20486;-71
2021/07/03 02:49:25;;;;;;;;;;;;;;;21.78;62.55;99235.34;3509728;28;19935;-72
2021/07/03 02:51:06;;;;;;;;;;;;;;;21.80;62.78;99231.56;3508034;28;19927;-71
2021/07/03 02:52:47;;;;;;;;;;;;;;;21.78;62.77;99234.53;3510913;28;19963;-71
2021/07/03 02:54:28;;;;;;;;;;;;;;;21.75;62.88;99235.09;3511460;28;20022;-71
2021/07/03 02:56:09;;;;;;;;;;;;;;;21.73;62.80;99238.09;3510399;28;19916;-70
2021/07/03 02:57:51;;;;;;;;;;;;;;;21.73;62.74;99238.09;3510236;28;20023;-72
2021/07/03 02:59:32;;;;;;;;;;;;;;;21.73;62.83;99232.66;3496975;28;19924;-71
2021/07/03 03:01:15;;;;;;;;;;;;;;;21.77;62.93;99239.16;3496213;28;19964;-72
2021/07/03 03:02:56;;;;;;;;;;;;;;;21.81;62.61;99233.97;3496391;28;20484;-71
2021/07/03 03:04:38;;;;;;;;;;;;;;;21.85;62.74;99234.25;3496958;28;19971;-72
2021/07/03 03:06:18;;;;;;;;;;;;;;;21.88;62.77;99239.09;3482193;28;19932;-70
2021/07/03 03:08:07;;;;;;;;;;;;;;;21.88;62.74;99241.81;3499839;28;19920;-71
2021/07/03 03:09:48;;;;;;;;;;;;;;;21.86;62.63;99241.28;3509847;28;19984;-71
2021/07/03 03:11:29;;;;;;;;;;;;;;;21.83;62.66;99244.56;3500188;28;19916;-71
2021/07/03 03:13:10;;;;;;;;;;;;;;;21.81;62.59;99249.44;3493158;28;20979;-72
2021/07/03 03:14:51;;;;;;;;;;;;;;;21.76;62.71;99248.41;3493149;28;19924;-70
2021/07/03 03:16:31;;;;;;;;;;;;;;;21.77;62.73;99255.44;3496371;28;19925;-72
2021/07/03 03:18:17;;;;;;;;;;;;;;;21.78;62.89;99254.34;3497803;28;19924;-71
2021/07/03 03:19:58;;;;;;;;;;;;;;;21.78;62.62;99248.91;3496726;28;20371;-71
2021/07/03 03:21:39;;;;;;;;;;;;;;;21.76;62.73;99253.81;3500151;28;20342;-71
2021/07/03 03:23:21;;;;;;;;;;;;;;;21.77;62.57;99258.16;3493369;28;19966;-72
2021/07/03 03:25:03;;;;;;;;;;;;;;;21.80;62.77;99261.41;3493114;28;19925;-72
2021/07/03 03:26:43;;;;;;;;;;;;;;;21.80;62.70;99253.25;3496554;28;19950;-72
2021/07/03 03:28:27;;;;;;;;;;;;;;;21.78;62.73;99259.75;3495680;28;19977;-71
2021/07/03 03:30:07;;;;;;;;;;;;;;;21.78;62.54;99265.19;3497037;28;19979;-70
2021/07/03 03:31:51;;;;;;;;;;;;;;;21.81;62.62;99257.59;3497745;28;20290;-69
2021/07/03 03:33:32;;;;;;;;;;;;;;;21.82;62.57;99259.22;3500469;28;19931;-72
2021/07/03 03:35:13;;;;;;;;;;;;;;;21.84;62.47;99266.00;3510735;28;19924;-71
2021/07/03 03:36:54;;;;;;;;;;;;;;;21.88;62.51;99261.63;3494167;28;19925;-71
2021/07/03 03:38:38;;;;;;;;;;;;;;;21.90;62.38;99267.56;3484615;28;19924;-72
2021/07/03 03:40:20;;;;;;;;;;;;;;;21.93;62.41;99269.72;3490221;28;20031;-73
2021/07/03 03:42:01;;;;;;;;;;;;;;;21.94;62.23;99265.09;3493158;28;19924;-72
2021/07/03 03:43:41;;;;;;;;;;;;;;;21.94;62.53;99265.09;3503998;28;19931;-72
2021/07/03 03:45:23;;;;;;;;;;;;;;;21.97;62.26;99261.84;3508749;28;20353;-72
2021/07/03 03:47:04;;;;;;;;;;;;;;;21.98;62.21;99266.97;3505412;28;20065;-73
2021/07/03 03:48:47;;;;;;;;;;;;;;;22.02;62.23;99258.28;3503920;28;19924;-73
2021/07/03 03:50:28;;;;;;;;;;;;;;;;;;3496653;28;19975;-72
2021/07/03 03:52:09;;;;;;;;;;;;;;;22.09;62.05;99267.72;3496758;28;19928;-72
2021/07/03 03:53:51;;;;;;;;;;;;;;;22.15;62.02;99266.63;3496882;28;19931;-72
2021/07/03 03:55:32;;;;;;;;;;;;;;;22.19;61.93;99264.97;3505764;28;19928;-72
2021/07/03 03:57:23;;;;;;;;;;;;;;;22.24;61.92;99274.19;3506165;28;19931;-72
2021/07/03 03:59:05;;;;;;;;;;;;;;;22.26;61.82;99269.31;3490965;28;19925;-71
2021/07/03 04:00:46;;;;;;;;;;;;;;;22.29;61.73;99260.59;3500970;28;19924;-72
2021/07/03 04:02:27;;;;;;;;;;;;;;;22.31;61.66;99258.41;3509804;28;20405;-72
2021/07/03 04:04:08;;;;;;;;;;;;;;;22.33;61.57;99269.78;3507906;28;20016;-72
2021/07/03 04:05:48;;;;;;;;;;;;;;;22.32;61.46;99260.81;3506474;28;19981;-72
2021/07/03 04:07:32;;;;;;;;;;;;;;;22.31;61.56;99267.38;3506968;28;20408;-71
2021/07/03 04:09:12;;;;;;;;;;;;;;;22.28;61.54;99281.50;3505611;28;19924;-72
2021/07/03 04:10:53;;;;;;;;;;;;;;;22.26;61.47;99282.88;3509202;28;19966;-73
2021/07/03 04:12:34;;;;;;;;;;;;;;;22.24;61.76;99287.78;3496625;28;19924;-72
2021/07/03 04:14:14;;;;;;;;;;;;;;;22.20;61.66;99282.06;3504505;28;19924;-72
2021/07/03 04:15:55;;;;;;;;;;;;;;;22.20;61.71;99290.22;3509771;28;19924;-72
2021/07/03 04:17:35;;;;;;;;;;;;;;;22.19;61.71;99281.28;3510377;28;19924;-72
2021/07/03 04:19:16;;;;;;;;;;;;;;;22.24;61.67;99279.63;3503535;28;20031;-72
2021/07/03 04:20:56;;;;;;;;;;;;;;;22.28;61.53;99277.94;3498300;28;19931;-73
2021/07/03 04:22:37;;;;;;;;;;;;;;;22.34;61.40;99276.84;3496819;28;19931;-72
2021/07/03 04:24:18;;;;;;;;;;;;;;;22.37;61.28;99279.78;3496661;28;19978;-73
2021/07/03 04:25:58;;;;;;;;;;;;;;;22.41;61.24;99280.06;3507068;28;20298;-72
2021/07/03 04:27:42;;;;;;;;;;;;;;;22.40;61.19;99275.69;3493056;28;19924;-73
2021/07/03 04:29:24;;;;;;;;;;;;;;;22.38;61.09;99281.44;3494006;28;19925;-72
2021/07/03 04:31:04;;;;;;;;;;;;;;;22.39;61.05;99282.25;3509466;28;19930;-72
2021/07/03 04:32:45;;;;;;;;;;;;;;;22.42;61.07;99287.91;3510309;28;19924;-73
2021/07/03 04:34:26;;;;;;;;;;;;;;;22.46;60.95;99277.31;3494008;28;19982;-72
2021/07/03 04:36:08;;;;;;;;;;;;;;;22.50;60.93;99277.53;3492788;28;19925;-71
2021/07/03 04:37:50;;;;;;;;;;;;;;;22.56;60.77;99282.66;3495819;28;20460;-71
2021/07/03 04:39:30;;;;;;;;;;;;;;;22.63;60.86;99280.41;3501942;28;19931;-72
2021/07/03 04:41:11;;;;;;;;;;;;;;;22.68;60.51;99279.56;3501604;28;20367;-72
2021/07/03 04:42:51;;;;;;;;;;;;;;;22.72;60.37;99287.94;3498808;28;19924;-71
2021/07/03 04:44:38;;;;;;;;;;;;;;;22.71;60.56;99279.00;3498010;28;19966;-72
2021/07/03 04:46:19;;;;;;;;;;;;;;;22.73;60.31;99281.44;3495064;28;20338;-72
2021/07/03 04:47:59;;;;;;;;;;;;;;;22.79;60.25;99274.84;3498761;28;20016;-72
2021/07/03 04:49:40;;;;;;;;;;;;;;;22.84;60.21;99280.22;3497642;28;20319;-72
2021/07/03 04:51:20;;;;;;;;;;;;;;;22.86;60.08;99280.78;3499644;28;20370;-71
2021/07/03 04:53:01;;;;;;;;;;;;;;;22.86;59.80;99278.06;3505521;28;20382;-72
2021/07/03 04:54:42;;;;;;;;;;;;;;;22.86;59.88;99278.06;3512709;28;19931;-72
2021/07/03 04:56:25;;;;;;;;;;;;;;;22.87;59.61;99274.22;3508176;28;19924;-71
2021/07/03 04:58:06;;;;;;;;;;;;;;;22.85;59.77;99274.53;3498741;28;19924;-71
2021/07/03 04:59:47;;;;;;;;;;;;;;;22.86;59.88;99269.91;3497528;28;19960;-71
2021/07/03 05:01:28;;;;;;;;;;;;;;;22.87;59.69;99276.94;3496399;28;19970;-72
2021/07/03 05:03:09;;;;;;;;;;;;;;;22.90;59.64;99275.56;3498881;28;19970;-73
2021/07/03 05:04:50;;;;;;;;;;;;;;;22.94;59.53;99271.19;3509045;28;19924;-73
2021/07/03 05:06:30;;;;;;;;;;;;;;;22.97;59.22;99276.88;3501865;28;19928;-72
2021/07/03 05:08:11;;;;;;;;;;;;;;;23.01;59.24;99275.22;3506983;28;19924;-72
2021/07/03 05:09:52;;;;;;;;;;;;;;;23.05;59.21;99273.56;3512348;28;19924;-72
2021/07/03 05:11:33;;;;;;;;;;;;;;;23.11;59.16;99281.66;3510958;28;19924;-71
2021/07/03 05:13:13;;;;;;;;;;;;;;;23.18;58.96;99265.81;3506197;28;20460;-72
2021/07/03 05:14:54;;;;;;;;;;;;;;;23.26;58.93;99273.34;3498426;28;19928;-72
2021/07/03 05:16:35;;;;;;;;;;;;;;;23.29;58.79;99270.06;3497589;28;19964;-72
2021/07/03 05:18:15;;;;;;;;;;;;;;;23.38;58.64;99278.38;3501661;28;20382;-71
2021/07/03 05:19:56;;;;;;;;;;;;;;;23.46;58.52;99278.53;3512453;28;20026;-72
2021/07/03 05:21:37;;;;;;;;;;;;;;;23.54;58.25;99274.38;3512556;28;19931;-72
2021/07/03 05:23:17;;;;;;;;;;;;;;;23.60;58.19;99284.09;3506847;28;19931;-72
2021/07/03 05:24:58;;;;;;;;;;;;;;;23.66;58.24;99282.13;3484672;28;20007;-72
2021/07/03 05:26:38;;;;;;;;;;;;;;;23.72;58.21;99291.88;3496091;28;20299;-71
2021/07/03 05:28:19;;;;;;;;;;;;;;;23.76;58.01;99281.22;3501885;28;20023;-72
2021/07/03 05:30:00;;;;;;;;;;;;;;;23.82;57.70;99277.31;3511455;28;20020;-73
2021/07/03 05:31:41;;;;;;;;;;;;;;;23.85;57.59;99280.28;3511036;28;20359;-72
2021/07/03 05:33:21;;;;;;;;;;;;;;;23.86;57.73;99287.34;3505978;28;19924;-72
2021/07/03 05:35:02;;;;;;;;;;;;;;;23.89;57.79;99289.47;3501748;28;19928;-72
2021/07/03 05:36:45;;;;;;;;;;;;;;;23.88;57.35;99290.59;3509196;28;19928;-73
2021/07/03 05:38:25;;;;;;;;;;;;;;;23.84;57.37;99275.94;3512040;28;20329;-73
2021/07/03 05:40:09;;;;;;;;;;;;;;;23.96;57.19;99297.28;3503126;28;19935;-73
2021/07/03 05:41:50;;;;;;;;;;;;;;;24.00;57.21;99290.13;3498471;28;19925;-72
2021/07/03 05:43:31;;;;;;;;;;;;;;;24.09;57.13;99279.41;3499988;28;20272;-73
2021/07/03 05:45:14;;;;;;;;;;;;;;;24.21;56.83;99284.41;3499236;28;20015;-72
2021/07/03 05:46:55;;;;;;;;;;;;;;;24.30;56.55;99286.19;3498213;28;19929;-73
2021/07/03 05:48:35;;;;;;;;;;;;;;;24.42;56.37;99287.63;3505502;28;19975;-73
2021/07/03 05:50:17;;;;;;;;;;;;;;;24.49;56.27;99283.47;3504690;28;20403;-72
2021/07/03 05:51:57;;;;;;;;;;;;;;;24.55;55.98;99286.91;3496828;28;20498;-72
2021/07/03 05:53:38;;;;;;;;;;;;;;;24.63;55.70;99283.53;3504527;28;19931;-73
2021/07/03 05:55:19;;;;;;;;;;;;;;;24.71;55.44;99284.78;3498760;28;19925;-72
2021/07/03 05:56:59;;;;;;;;;;;;;;;24.83;55.43;99292.47;3505121;28;19935;-72
2021/07/03 05:58:40;;;;;;;;;;;;;;;24.93;55.13;99289.56;3510703;28;19924;-73
2021/07/03 06:00:21;;;;;;;;;;;;;;;25.04;54.78;99282.81;3498610;28;19924;-73
2021/07/03 06:02:02;;;;;;;;;;;;;;;25.11;54.41;99285.94;3506432;28;20305;-72
2021/07/03 06:03:42;;;;;;;;;;;;;;;25.12;54.05;99287.59;3511789;28;20359;-73
2021/07/03 06:05:23;;;;;;;;;;;;;;;25.11;54.00;99287.88;3510596;28;19981;-72
2021/07/03 06:07:03;;;;;;;;;;;;;;;25.15;54.48;99286.19;3508144;28;20352;-72
2021/07/03 06:08:44;;;;;;;;;;;;;;;25.21;54.02;99280.34;3511677;28;20022;-73
2021/07/03 06:10:24;;;;;;;;;;;;;;;25.30;54.03;99280.47;3511355;28;19930;-72
2021/07/03 06:12:06;;;;;;;;;;;;;;;25.39;53.58;99277.84;3511876;28;19924;-73
2021/07/03 06:13:47;;;;;;;;;;;;;;;25.47;53.25;99274.41;3503220;28;19931;-73
2021/07/03 06:15:27;;;;;;;;;;;;;;;25.53;53.11;99275.09;3497995;28;19936;-73
2021/07/03 06:17:13;;;;;;;;;;;;;;;25.61;53.60;99274.41;3500267;28;20101;-73
2021/07/03 06:18:55;;;;;;;;;;;;;;;25.68;53.13;99281.03;3498966;28;19924;-72
2021/07/03 06:20:39;;;;;;;;;;;;;;;25.78;52.35;99279.22;3498345;28;19933;-72
2021/07/03 06:22:21;;;;;;;;;;;;;;;25.86;52.24;99281.25;3490765;28;20454;-74
2021/07/03 06:24:02;;;;;;;;;;;;;;;25.92;52.08;99280.06;3483602;28;19929;-73
2021/07/03 06:25:44;;;;;;;;;;;;;;;25.99;52.13;99282.34;3485039;28;19948;-73
2021/07/03 06:27:25;;;;;;;;;;;;;;;26.04;51.94;99283.03;3511438;28;20018;-73
2021/07/03 06:29:07;;;;;;;;;;;;;;;26.10;51.46;99287.28;3499425;28;19931;-74
2021/07/03 06:30:47;;;;;;;;;;;;;;;26.16;51.55;99284.44;3493361;28;19924;-72
2021/07/03 06:32:29;;;;;;;;;;;;;;;26.14;51.57;99289.41;3508347;28;20006;-74
2021/07/03 06:34:09;;;;;;;;;;;;;;;26.09;52.12;99280.19;3511374;28;19962;-71
2021/07/03 06:35:50;;;;;;;;;;;;;;;26.03;51.48;99280.63;3497871;28;19964;-72
2021/07/03 06:37:31;;;;;;;;;;;;;;;25.97;51.42;99284.56;3508276;28;19947;-72
2021/07/03 06:39:12;;;;;;;;;;;;;;;26.02;51.91;99290.75;3511122;28;19977;-73
2021/07/03 06:40:52;;;;;;;;;;;;;;;26.14;51.65;99289.41;3497978;28;20299;-73
2021/07/03 06:42:35;;;;;;;;;;;;;;;26.29;51.26;99283.59;3496035;28;19924;-73
2021/07/03 06:44:16;;;;;;;;;;;;;;;26.49;50.64;99282.31;3485947;28;20357;-72
2021/07/03 06:45:56;;;;;;;;;;;;;;;26.68;50.50;99285.69;3502213;28;20018;-72
2021/07/03 06:47:37;;;;;;;;;;;;;;;26.88;50.26;99291.78;3511515;28;20026;-72
2021/07/03 06:49:17;;;;;;;;;;;;;;;27.04;49.94;99286.69;3507395;28;19959;-72
2021/07/03 06:50:58;;;;;;;;;;;;;;;27.12;49.26;99285.94;3497211;28;20422;-71
2021/07/03 06:52:38;;;;;;;;;;;;;;;27.11;48.94;99287.06;3496834;28;19924;-73
2021/07/03 06:54:19;;;;;;;;;;;;;;;27.03;49.48;99291.38;3498568;28;20040;-73
2021/07/03 06:56:01;;;;;;;;;;;;;;;26.91;48.85;99289.19;3496578;28;19929;-74
2021/07/03 06:57:42;;;;;;;;;;;;;;;26.80;49.58;99292.50;3507603;28;20507;-75
2021/07/03 06:59:22;;;;;;;;;;;;;;;26.69;49.58;99286.47;3507512;28;19939;-72
2021/07/03 07:01:03;;;;;;;;;;;;;;;26.58;49.18;99301.53;3503698;28;19985;-73
2021/07/03 07:02:43;;;;;;;;;;;;;;;26.49;50.11;99299.50;3496939;28;19924;-72
2021/07/03 07:04:24;;;;;;;;;;;;;;;26.40;49.97;99295.09;3497358;28;19985;-72
2021/07/03 07:06:04;;;;;;;;;;;;;;;26.33;50.07;99295.50;3497585;28;20390;-72
2021/07/03 07:07:45;;;;;;;;;;;;;;;26.25;50.22;99290.78;3498048;28;20280;-73
2021/07/03 07:09:25;;;;;;;;;;;;;;;26.17;50.48;99303.25;3497060;28;19925;-73
2021/07/03 07:11:06;;;;;;;;;;;;;;;26.10;50.29;99309.16;3498247;28;19924;-73
2021/07/03 07:12:47;;;;;;;;;;;;;;;26.02;50.58;99293.50;3508979;28;20648;-73
2021/07/03 07:14:27;;;;;;;;;;;;;;;25.94;50.68;99294.19;3507566;28;20034;-73
2021/07/03 07:16:08;;;;;;;;;;;;;;;25.87;51.01;99299.28;3502068;28;19931;-74
2021/07/03 07:17:48;;;;;;;;;;;;;;;25.85;51.00;99294.13;3510189;28;19923;-73
2021/07/03 07:19:29;;;;;;;;;;;;;;;25.95;50.53;99290.38;3500985;28;19924;-73
2021/07/03 07:21:09;;;;;;;;;;;;;;;26.14;50.32;99292.13;3493888;28;19955;-72
2021/07/03 07:22:51;;;;;;;;;;;;;;;26.34;50.32;99294.41;3488501;28;19904;-73
2021/07/03 07:24:31;;;;;;;;;;;;;;;26.56;49.97;99295.56;3511259;28;19995;-71
2021/07/03 07:26:13;;;;;;;;;;;;;;;26.77;49.46;99288.50;3514505;28;19928;-72
2021/07/03 07:27:53;;;;;;;;;;;;;;;27.01;49.33;99288.13;3513215;28;19967;-71
2021/07/03 07:29:34;;;;;;;;;;;;;;;27.16;48.89;99289.66;3508458;28;19924;-73
2021/07/03 07:31:15;;;;;;;;;;;;;;;27.22;48.41;99287.63;3510149;28;20386;-73
2021/07/03 07:32:55;;;;;;;;;;;;;;;27.20;48.46;99296.13;3509783;28;19924;-73
2021/07/03 07:34:36;;;;;;;;;;;;;;;27.21;48.45;99291.47;3509052;28;20035;-74
2021/07/03 07:36:17;;;;;;;;;;;;;;;27.19;48.35;99283.59;3506456;28;19924;-74
2021/07/03 07:37:57;;;;;;;;;;;;;;;27.16;48.18;99286.94;3509805;28;19923;-73
2021/07/03 07:39:38;;;;;;;;;;;;;;;27.10;48.44;99297.19;3510465;28;19923;-73
2021/07/03 07:41:18;;;;;;;;;;;;;;;27.03;48.41;99291.38;3508049;28;19934;-73
2021/07/03 07:42:59;;;;;;;;;;;;;;;26.97;48.09;99287.94;3481770;28;19979;-73
2021/07/03 07:44:40;;;;;;;;;;;;;;;26.89;48.62;99283.22;3493410;28;19961;-73
2021/07/03 07:46:20;;;;;;;;;;;;;;;26.81;49.12;99283.19;3497286;28;19925;-72
2021/07/03 07:48:01;;;;;;;;;;;;;;;26.72;48.90;99289.41;3499803;28;19977;-73
2021/07/03 07:49:41;;;;;;;;;;;;;;;26.64;49.17;99284.69;3508292;28;20425;-72
2021/07/03 07:51:22;;;;;;;;;;;;;;;26.58;49.26;99287.84;3504769;28;19970;-73
2021/07/03 07:53:02;;;;;;;;;;;;;;;26.52;49.34;99287.97;3496917;28;19925;-73
2021/07/03 07:54:43;;;;;;;;;;;;;;;26.50;49.53;99278.44;3496696;28;20398;-72
2021/07/03 07:56:23;;;;;;;;;;;;;;;26.47;49.47;99282.59;3496585;28;20015;-72
2021/07/03 07:58:04;;;;;;;;;;;;;;;26.44;49.03;99282.44;3496875;28;19968;-71
2021/07/03 07:59:44;;;;;;;;;;;;;;;26.41;49.42;99278.41;3500636;28;19924;-72
2021/07/03 08:01:25;;;;;;;;;;;;;;;26.37;49.10;99285.59;3498771;28;19924;-73
2021/07/03 08:03:06;;;;;;;;;;;;;;;26.33;49.36;99284.56;3509411;28;19923;-72
2021/07/03 08:04:46;;;;;;;;;;;;;;;26.25;49.40;99286.13;3506254;28;19984;-72
2021/07/03 08:06:27;;;;;;;;;;;;;;;26.20;49.72;99285.44;3496499;28;19925;-73
2021/07/03 08:08:07;;;;;;;;;;;;;;;26.12;49.72;99289.69;3496496;28;20403;-72
2021/07/03 08:09:48;;;;;;;;;;;;;;;26.05;49.60;99292.06;3496552;28;19956;-73
2021/07/03 08:11:31;;;;;;;;;;;;;;;25.96;50.09;99289.22;3496429;28;19924;-73
2021/07/03 08:13:11;;;;;;;;;;;;;;;25.90;50.11;99287.75;3496326;28;19931;-72
2021/07/03 08:14:52;;;;;;;;;;;;;;;25.85;49.98;99285.13;3497345;28;19923;-72
2021/07/03 08:16:33;;;;;;;;;;;;;;;25.79;50.01;99294.47;3495364;28;19924;-74
2021/07/03 08:18:13;;;;;;;;;;;;;;;25.74;50.19;99289.97;3494604;28;19924;-72
2021/07/03 08:19:54;;;;;;;;;;;;;;;25.69;49.79;99287.34;3510319;28;19931;-72
2021/07/03 08:21:34;;;;;;;;;;;;;;;25.65;50.37;99292.56;3504472;28;19946;-72
2021/07/03 08:23:15;;;;;;;;;;;;;;;25.62;50.28;99287.72;3500223;28;19974;-73
2021/07/03 08:24:56;;;;;;;;;;;;;;;25.61;50.13;99304.44;3483984;28;19952;-74
2021/07/03 08:26:36;;;;;;;;;;;;;;;25.59;50.11;99302.00;3494626;28;19930;-72
2021/07/03 08:28:17;;;;;;;;;;;;;;;25.60;50.41;99306.31;3497468;28;20023;-73
2021/07/03 08:29:57;;;;;;;;;;;;;;;25.60;50.32;99306.31;3499292;28;19924;-73
2021/07/03 08:31:38;;;;;;;;;;;;;;;25.59;50.27;99310.19;3497371;28;19935;-72
2021/07/03 08:33:19;;;;;;;;;;;;;;;25.60;50.47;99309.06;3497410;28;19924;-72
2021/07/03 08:34:59;;;;;;;;;;;;;;;25.60;50.29;99309.06;3497429;28;20399;-72
2021/07/03 08:36:40;;;;;;;;;;;;;;;25.62;50.23;99309.56;3499425;28;19932;-72
2021/07/03 08:38:21;;;;;;;;;;;;;;;25.63;50.35;99304.91;3499180;28;19974;-72
2021/07/03 08:40:03;;;;;;;;;;;;;;;25.63;50.12;99300.25;3511920;28;19988;-73
2021/07/03 08:41:43;;;;;;;;;;;;;;;25.65;50.32;99313.63;3512772;28;19928;-73
2021/07/03 08:43:24;;;;;;;;;;;;;;;25.66;49.93;99313.31;3499074;28;20379;-73
2021/07/03 08:45:09;;;;;;;;;;;;;;;25.68;50.26;99313.81;3498983;28;19931;-72
2021/07/03 08:46:51;;;;;;;;;;;;;;;25.74;50.24;99310.97;3471135;28;20015;-74
2021/07/03 08:48:32;;;;;;;;;;;;;;;25.80;50.00;99315.22;3504377;28;19924;-69